EGCC/MAN METAR and TAF weather

Enter ICAO airport designator
Station Type Date Time Source
EGCC METAR 2021/04/13 08:20 UTC NOAA

EGCC 130820Z AUTO VRB02KT 9999 NCD 05/M01 Q1033 NOSIG


Station Type Date Time Source
EGCC Decoded METAR 2021/04/13 08:20 UTC NOAA

Manchester Airport, United Kingdom (EGCC) 53-21N 002-17W 0M
Apr 13, 2021 - 04:20 AM EDT / 2021.04.13 0820 UTC
Wind: Variable at 2 MPH (2 KT):0
Visibility: greater than 7 mile(s):0
Temperature: 41 F (5 C)
Dew Point: 30 F (-1 C)
Relative Humidity: 65%
Pressure (altimeter): 30.50 in. Hg (1033 hPa)
ob: EGCC 130820Z AUTO VRB02KT 9999 NCD 05/M01 Q1033 NOSIG
cycle: 8

Station Type Date Time Source
EGCC TAF 2021/04/13 06:09 UTC NOAA

TAF EGCC 130458Z 1306/1412 VRB03KT 9999 SCT040 PROB30
TEMPO 1401/1408 8000 -SHRA BKN014

Example: see airport list